createdAt,value
2023-04-26T00:00:18.751Z,0.00
2023-04-26T00:01:16.665Z,0.00
2023-04-26T00:02:16.725Z,0.00
2023-04-26T00:03:17.455Z,0.00
2023-04-26T00:04:16.935Z,0.00
2023-04-26T00:05:18.717Z,0.00
2023-04-26T00:06:16.637Z,0.00
2023-04-26T00:07:16.634Z,0.00
2023-04-26T00:08:16.674Z,0.00
2023-04-26T00:09:16.673Z,0.00
2023-04-26T00:10:16.639Z,0.00
2023-04-26T00:11:17.333Z,0.00
2023-04-26T00:12:16.565Z,0.00
2023-04-26T00:13:17.310Z,0.00
2023-04-26T00:14:16.654Z,0.00
2023-04-26T00:15:16.538Z,0.00
2023-04-26T00:16:16.583Z,0.00
2023-04-26T00:17:16.523Z,0.00
2023-04-26T00:18:16.553Z,0.00
2023-04-26T00:19:16.475Z,0.00
2023-04-26T00:20:16.515Z,0.00
2023-04-26T00:21:16.466Z,0.00
2023-04-26T00:22:16.454Z,0.00
2023-04-26T00:23:16.477Z,0.00
2023-04-26T00:24:17.264Z,0.00
2023-04-26T00:25:16.479Z,0.00
2023-04-26T00:26:16.478Z,0.00
2023-04-26T00:27:16.472Z,0.00
2023-04-26T00:28:16.474Z,0.00
2023-04-26T00:29:16.381Z,0.00
2023-04-26T00:30:16.445Z,0.00
2023-04-26T00:31:16.400Z,0.00
2023-04-26T00:32:16.402Z,0.00
2023-04-26T00:33:16.365Z,0.00
2023-04-26T00:34:17.323Z,0.00
2023-04-26T00:35:16.848Z,0.00
2023-04-26T00:36:16.394Z,0.00
2023-04-26T00:37:16.300Z,0.00
2023-04-26T00:38:16.322Z,0.00
2023-04-26T00:39:16.336Z,0.00
2023-04-26T00:40:16.337Z,0.00
2023-04-26T00:41:16.296Z,0.00
2023-04-26T00:42:16.260Z,0.00
2023-04-26T00:43:16.264Z,0.00
2023-04-26T00:44:16.263Z,0.00
2023-04-26T00:45:16.260Z,0.00
2023-04-26T00:46:16.328Z,0.00
2023-04-26T00:47:16.259Z,0.00
2023-04-26T00:48:16.222Z,0.00
2023-04-26T00:49:16.308Z,0.00
2023-04-26T00:50:16.217Z,0.00
2023-04-26T00:51:16.209Z,0.00
2023-04-26T00:52:16.185Z,0.00
2023-04-26T00:53:16.159Z,0.00
2023-04-26T00:54:16.129Z,0.00
2023-04-26T00:55:16.134Z,0.00
2023-04-26T00:56:16.174Z,0.00
2023-04-26T00:57:16.094Z,0.00
2023-04-26T00:58:16.125Z,0.00
2023-04-26T00:59:16.092Z,0.00
2023-04-26T01:00:16.091Z,0.00
2023-04-26T01:01:16.814Z,0.00
2023-04-26T01:02:16.145Z,0.00
2023-04-26T01:03:16.126Z,0.00
2023-04-26T01:04:16.463Z,0.00
2023-04-26T01:05:16.092Z,0.00
2023-04-26T01:06:16.076Z,0.00
2023-04-26T01:07:16.012Z,0.00
2023-04-26T01:08:15.990Z,0.00
2023-04-26T01:09:16.365Z,0.00
2023-04-26T01:10:15.984Z,0.00
2023-04-26T01:11:15.977Z,0.00
2023-04-26T01:12:15.952Z,0.00
2023-04-26T01:13:15.991Z,0.00
2023-04-26T01:14:15.956Z,0.00
2023-04-26T01:15:15.962Z,0.00
2023-04-26T01:16:15.955Z,0.00
2023-04-26T01:17:16.315Z,0.00
2023-04-26T01:18:16.349Z,0.00
2023-04-26T01:19:15.925Z,0.00
2023-04-26T01:20:15.986Z,0.00
2023-04-26T01:21:16.723Z,0.00
2023-04-26T01:22:15.906Z,0.00
2023-04-26T01:23:15.832Z,0.00
2023-04-26T01:24:15.850Z,0.00
2023-04-26T01:25:15.846Z,0.00
2023-04-26T01:26:15.805Z,0.00
2023-04-26T01:27:15.822Z,0.00
2023-04-26T01:28:15.825Z,0.00
2023-04-26T01:29:15.816Z,0.00
2023-04-26T01:30:15.846Z,0.00
2023-04-26T01:31:15.863Z,0.00
2023-04-26T01:32:15.781Z,0.00
2023-04-26T01:33:15.754Z,0.00
2023-04-26T01:34:15.783Z,0.00
2023-04-26T01:35:15.756Z,0.00
2023-04-26T01:36:16.022Z,0.00
2023-04-26T01:37:15.742Z,0.00
2023-04-26T01:38:15.696Z,0.00
2023-04-26T01:39:15.677Z,0.00
2023-04-26T01:40:15.698Z,0.00
2023-04-26T01:41:15.709Z,0.00
2023-04-26T01:42:15.646Z,0.00
2023-04-26T01:43:15.761Z,0.00
2023-04-26T01:44:15.682Z,0.00
2023-04-26T01:45:15.637Z,0.00
2023-04-26T01:46:15.630Z,0.00
2023-04-26T01:47:15.591Z,0.00
2023-04-26T01:48:15.628Z,0.00
2023-04-26T01:49:15.571Z,0.00
2023-04-26T01:50:15.574Z,0.00
2023-04-26T01:51:15.607Z,0.00
2023-04-26T01:52:15.600Z,0.00
2023-04-26T01:53:15.559Z,0.00
2023-04-26T01:54:15.565Z,0.00
2023-04-26T01:55:15.512Z,0.00
2023-04-26T01:56:15.523Z,0.00
2023-04-26T01:57:15.546Z,0.00
2023-04-26T01:58:15.548Z,0.00
2023-04-26T01:59:15.482Z,0.00
2023-04-26T02:00:15.497Z,0.00
2023-04-26T02:01:15.497Z,0.00
2023-04-26T02:02:15.483Z,0.00
2023-04-26T02:03:15.732Z,0.00
2023-04-26T02:04:15.495Z,0.00
2023-04-26T02:05:15.534Z,0.00
2023-04-26T02:06:15.404Z,0.00
2023-04-26T02:07:15.444Z,0.00
2023-04-26T02:08:15.354Z,0.00
2023-04-26T02:09:15.418Z,0.00
2023-04-26T02:10:15.374Z,0.00
2023-04-26T02:11:15.405Z,0.00
2023-04-26T02:12:15.358Z,0.00
2023-04-26T02:13:15.329Z,0.00
2023-04-26T02:14:15.343Z,0.00
2023-04-26T02:15:15.338Z,0.00
2023-04-26T02:16:15.337Z,0.00
2023-04-26T02:17:15.312Z,0.00
2023-04-26T02:18:15.297Z,0.00
2023-04-26T02:19:15.323Z,0.00
2023-04-26T02:20:15.255Z,0.00
2023-04-26T02:21:15.248Z,0.00
2023-04-26T02:22:15.279Z,0.00
2023-04-26T02:23:15.257Z,0.00
2023-04-26T02:24:15.219Z,0.00
2023-04-26T02:25:15.222Z,0.00
2023-04-26T02:26:15.232Z,0.00
2023-04-26T02:27:15.233Z,0.00
2023-04-26T02:28:15.213Z,0.00
2023-04-26T02:29:15.267Z,0.00
2023-04-26T02:30:15.193Z,0.00
2023-04-26T02:31:15.237Z,0.00
2023-04-26T02:32:15.170Z,0.00
2023-04-26T02:33:15.169Z,0.00
2023-04-26T02:34:15.093Z,0.00
2023-04-26T02:35:15.124Z,0.00
2023-04-26T02:36:15.100Z,0.00
2023-04-26T02:37:15.164Z,0.00
2023-04-26T02:38:15.103Z,0.00
2023-04-26T02:39:15.848Z,0.00
2023-04-26T02:40:15.046Z,0.00
2023-04-26T02:41:15.062Z,0.00
2023-04-26T02:42:15.039Z,0.00
2023-04-26T02:43:15.067Z,0.00
2023-04-26T02:44:15.039Z,0.00
2023-04-26T02:45:15.033Z,0.00
2023-04-26T02:46:17.179Z,0.00
2023-04-26T02:47:15.041Z,0.00
2023-04-26T02:48:14.955Z,0.00
2023-04-26T02:49:14.953Z,0.00
2023-04-26T02:50:15.043Z,0.00
2023-04-26T02:51:14.961Z,0.00
2023-04-26T02:52:14.938Z,0.00
2023-04-26T02:53:14.931Z,0.00
2023-04-26T02:54:14.908Z,0.00
2023-04-26T02:55:14.940Z,0.00
2023-04-26T02:56:14.889Z,0.00
2023-04-26T02:57:14.875Z,0.00
2023-04-26T02:58:14.857Z,0.00
2023-04-26T02:59:14.906Z,0.00
2023-04-26T03:00:14.876Z,0.00
2023-04-26T03:01:14.871Z,0.00
2023-04-26T03:02:14.891Z,0.00
2023-04-26T03:03:15.088Z,0.00
2023-04-26T03:04:15.041Z,0.00
2023-04-26T03:05:14.811Z,0.00
2023-04-26T03:06:14.776Z,0.00
2023-04-26T03:07:14.798Z,0.00
2023-04-26T03:08:14.770Z,0.00
2023-04-26T03:09:14.798Z,0.00
2023-04-26T03:10:14.756Z,0.00
2023-04-26T03:11:14.743Z,0.00
2023-04-26T03:12:14.707Z,0.00
2023-04-26T03:13:14.760Z,0.00
2023-04-26T03:14:14.729Z,0.00
2023-04-26T03:15:14.692Z,0.00
2023-04-26T03:16:14.837Z,0.00
2023-04-26T03:17:14.687Z,0.00
2023-04-26T03:18:14.703Z,0.00
2023-04-26T03:19:14.681Z,0.00
2023-04-26T03:20:14.661Z,0.00
2023-04-26T03:21:14.681Z,0.00
2023-04-26T03:22:14.679Z,0.00
2023-04-26T03:23:14.616Z,0.00
2023-04-26T03:24:14.616Z,0.00
2023-04-26T03:25:14.590Z,0.00
2023-04-26T03:26:14.616Z,0.00
2023-04-26T03:27:14.615Z,0.00
2023-04-26T03:28:14.576Z,0.00
2023-04-26T03:29:14.644Z,0.00
2023-04-26T03:30:14.546Z,0.00
2023-04-26T03:31:14.543Z,0.00
2023-04-26T03:32:14.551Z,1.00
2023-04-26T03:33:14.579Z,0.00
2023-04-26T03:34:14.469Z,1.00
2023-04-26T03:35:14.465Z,1.00
2023-04-26T03:36:14.417Z,1.00
2023-04-26T03:37:14.425Z,1.00
2023-04-26T03:38:14.413Z,2.00
2023-04-26T03:39:14.474Z,0.00
2023-04-26T03:40:14.429Z,2.00
2023-04-26T03:41:14.390Z,1.00
2023-04-26T03:42:14.386Z,1.00
2023-04-26T03:43:14.378Z,2.00
2023-04-26T03:44:14.358Z,1.00
2023-04-26T03:45:14.362Z,1.00
2023-04-26T03:46:14.440Z,5.00
2023-04-26T03:47:14.319Z,6.00
2023-04-26T03:48:14.320Z,7.00
2023-04-26T03:49:14.313Z,4.00
2023-04-26T03:50:15.223Z,4.00
2023-04-26T03:51:14.304Z,5.00
2023-04-26T03:52:14.301Z,9.00
2023-04-26T03:53:14.283Z,9.00
2023-04-26T03:54:14.250Z,11.00
2023-04-26T03:55:14.260Z,12.00
2023-04-26T03:56:14.339Z,14.00
2023-04-26T03:57:14.254Z,20.00
2023-04-26T03:58:14.204Z,17.00
2023-04-26T03:59:14.192Z,21.00
2023-04-26T04:00:14.208Z,26.00
2023-04-26T04:01:14.166Z,28.00
2023-04-26T04:02:14.234Z,30.00
2023-04-26T04:03:14.437Z,35.00
2023-04-26T04:04:14.366Z,41.00
2023-04-26T04:05:14.390Z,46.00
2023-04-26T04:06:14.133Z,52.00
2023-04-26T04:07:14.192Z,59.00
2023-04-26T04:08:14.099Z,67.00
2023-04-26T04:09:14.158Z,73.00
2023-04-26T04:10:14.108Z,80.00
2023-04-26T04:11:14.092Z,88.00
2023-04-26T04:12:14.088Z,96.00
2023-04-26T04:13:14.061Z,107.00
2023-04-26T04:14:14.094Z,116.00
2023-04-26T04:15:14.056Z,122.00
2023-04-26T04:16:14.084Z,135.00
2023-04-26T04:17:14.013Z,143.00
2023-04-26T04:18:14.018Z,154.00
2023-04-26T04:19:14.045Z,166.00
2023-04-26T04:20:14.005Z,181.00
2023-04-26T04:21:13.966Z,193.00
2023-04-26T04:22:13.957Z,208.00
2023-04-26T04:23:14.900Z,222.00
2023-04-26T04:24:13.944Z,241.00
2023-04-26T04:25:13.955Z,256.00
2023-04-26T04:26:13.935Z,271.00
2023-04-26T04:27:13.910Z,285.00
2023-04-26T04:28:13.921Z,302.00
2023-04-26T04:29:13.902Z,322.00
2023-04-26T04:30:13.856Z,337.00
2023-04-26T04:31:13.942Z,351.00
2023-04-26T04:32:13.853Z,369.00
2023-04-26T04:33:13.843Z,387.00
2023-04-26T04:34:13.854Z,405.00
2023-04-26T04:35:13.823Z,426.00
2023-04-26T04:36:13.856Z,449.00
2023-04-26T04:37:13.813Z,473.00
2023-04-26T04:38:13.886Z,492.00
2023-04-26T04:39:13.817Z,516.00
2023-04-26T04:40:13.769Z,536.00
2023-04-26T04:41:13.833Z,559.00
2023-04-26T04:42:13.739Z,577.00
2023-04-26T04:43:13.823Z,603.00
2023-04-26T04:44:13.739Z,620.00
2023-04-26T04:45:13.767Z,641.00
2023-04-26T04:46:13.757Z,668.00
2023-04-26T04:47:13.709Z,693.00
2023-04-26T04:48:13.717Z,723.00
2023-04-26T04:49:13.690Z,744.00
2023-04-26T04:50:13.650Z,762.00
2023-04-26T04:51:13.704Z,784.00
2023-04-26T04:52:13.651Z,799.00
2023-04-26T04:53:13.724Z,810.00
2023-04-26T04:54:13.686Z,831.00
2023-04-26T04:55:13.699Z,851.00
2023-04-26T04:56:13.626Z,876.00
2023-04-26T04:57:13.632Z,891.00
2023-04-26T04:58:13.582Z,910.00
2023-04-26T04:59:13.622Z,938.00
2023-04-26T05:00:13.620Z,964.00
2023-04-26T05:01:13.554Z,983.00
2023-04-26T05:02:13.737Z,998.00
2023-04-26T05:03:13.682Z,1022.00
2023-04-26T05:04:13.750Z,1036.00
2023-04-26T05:05:13.641Z,1053.00
2023-04-26T05:06:13.561Z,1078.00
2023-04-26T05:07:13.509Z,1095.00
2023-04-26T05:08:13.483Z,1115.00
2023-04-26T05:09:13.499Z,1140.00
2023-04-26T05:10:13.503Z,1155.00
2023-04-26T05:11:13.457Z,1166.00
2023-04-26T05:12:13.502Z,1172.00
2023-04-26T05:13:13.441Z,1240.00
2023-04-26T05:14:13.439Z,1238.00
2023-04-26T05:15:13.457Z,1250.00
2023-04-26T05:16:13.491Z,1259.00
2023-04-26T05:17:13.410Z,1281.00
2023-04-26T05:18:13.421Z,1295.00
2023-04-26T05:19:13.421Z,1308.00
2023-04-26T05:20:13.368Z,1325.00
2023-04-26T05:21:13.365Z,1338.00
2023-04-26T05:22:13.367Z,1352.00
2023-04-26T05:23:13.367Z,1366.00
2023-04-26T05:24:13.312Z,1390.00
2023-04-26T05:25:13.315Z,1408.00
2023-04-26T05:26:13.298Z,1429.00
2023-04-26T05:27:13.373Z,1442.00
2023-04-26T05:28:13.336Z,1460.00
2023-04-26T05:29:13.346Z,1476.00
2023-04-26T05:30:13.283Z,1496.00
2023-04-26T05:31:13.379Z,1514.00
2023-04-26T05:32:13.272Z,1541.00
2023-04-26T05:33:13.311Z,1568.00
2023-04-26T05:34:13.231Z,1572.00
2023-04-26T05:35:13.288Z,1576.00
2023-04-26T05:36:13.281Z,1627.00
2023-04-26T05:37:13.200Z,1672.00
2023-04-26T05:38:13.245Z,1715.00
2023-04-26T05:39:13.167Z,1846.00
2023-04-26T05:40:13.187Z,1917.00
2023-04-26T05:41:13.234Z,1948.00
2023-04-26T05:42:13.491Z,1969.00
2023-04-26T05:43:13.197Z,1997.00
2023-04-26T05:44:13.844Z,1982.00
2023-04-26T05:45:13.132Z,1954.00
2023-04-26T05:46:13.198Z,1917.00
2023-04-26T05:47:13.109Z,1877.00
2023-04-26T05:48:13.192Z,1855.00
2023-04-26T05:49:13.109Z,1847.00
2023-04-26T05:50:13.064Z,1825.00
2023-04-26T05:51:13.048Z,1858.00
2023-04-26T05:52:13.026Z,1875.00
2023-04-26T05:53:13.050Z,1885.00
2023-04-26T05:54:13.012Z,1924.00
2023-04-26T05:55:13.008Z,1975.00
2023-04-26T05:56:13.007Z,2020.00
2023-04-26T05:57:12.979Z,2079.00
2023-04-26T05:58:13.044Z,2165.00
2023-04-26T05:59:12.963Z,2219.00
2023-04-26T06:00:12.975Z,2246.00
2023-04-26T06:01:12.955Z,2291.00
2023-04-26T06:02:13.001Z,2314.00
2023-04-26T06:03:13.202Z,2407.00
2023-04-26T06:04:13.078Z,2535.00
2023-04-26T06:05:13.076Z,2676.00
2023-04-26T06:06:12.885Z,2751.00
2023-04-26T06:07:12.874Z,2806.00
2023-04-26T06:08:12.870Z,2848.00
2023-04-26T06:09:12.855Z,2807.00
2023-04-26T06:10:12.844Z,2891.00
2023-04-26T06:11:12.873Z,2916.00
2023-04-26T06:12:12.834Z,2977.00
2023-04-26T06:13:12.835Z,2952.00
2023-04-26T06:14:23.167Z,2898.00
2023-04-26T06:15:12.812Z,2936.00
2023-04-26T06:16:12.785Z,2769.00
2023-04-26T06:17:12.827Z,2914.00
2023-04-26T06:18:12.828Z,2940.00
2023-04-26T06:19:12.818Z,2717.00
2023-04-26T06:20:12.745Z,2666.00
2023-04-26T06:21:12.742Z,2667.00
2023-04-26T06:22:12.727Z,2604.00
2023-04-26T06:23:12.700Z,2580.00
2023-04-26T06:24:12.722Z,2496.00
2023-04-26T06:25:12.670Z,2369.00
2023-04-26T06:26:12.695Z,2329.00
2023-04-26T06:27:12.704Z,2162.00
2023-04-26T06:28:12.694Z,2659.00
2023-04-26T06:29:12.700Z,3146.00
2023-04-26T06:30:12.639Z,3298.00
2023-04-26T06:31:12.651Z,3403.00
2023-04-26T06:32:12.662Z,3572.00
2023-04-26T06:33:12.637Z,3686.00
2023-04-26T06:34:12.595Z,3442.00
2023-04-26T06:35:12.598Z,3952.00
2023-04-26T06:36:12.779Z,3680.00
2023-04-26T06:37:12.571Z,3743.00
2023-04-26T06:38:12.632Z,3804.00
2023-04-26T06:39:12.537Z,3802.00
2023-04-26T06:40:12.569Z,3395.00
2023-04-26T06:41:12.768Z,3110.00
2023-04-26T06:42:12.548Z,3036.00
2023-04-26T06:43:12.496Z,3200.00
2023-04-26T06:44:12.541Z,3341.00
2023-04-26T06:45:12.517Z,3761.00
2023-04-26T06:46:13.386Z,3860.00
2023-04-26T06:47:12.490Z,4613.00
2023-04-26T06:48:12.490Z,4533.00
2023-04-26T06:49:12.473Z,4636.00
2023-04-26T06:50:12.448Z,4419.00
2023-04-26T06:51:12.487Z,3749.00
2023-04-26T06:52:12.429Z,3257.00
2023-04-26T06:53:12.444Z,3619.00
2023-04-26T06:54:12.450Z,4313.00
2023-04-26T06:55:12.371Z,4488.00
2023-04-26T06:56:12.392Z,4219.00
2023-04-26T06:57:12.351Z,4543.00
2023-04-26T06:58:12.379Z,4611.00
2023-04-26T06:59:12.408Z,5265.00
2023-04-26T07:00:12.353Z,4823.00
2023-04-26T07:01:12.387Z,4305.00
2023-04-26T07:02:13.882Z,3579.00
2023-04-26T07:03:12.463Z,3856.00
2023-04-26T07:04:12.469Z,3892.00
2023-04-26T07:05:12.430Z,5542.00
2023-04-26T07:06:12.290Z,4917.00
2023-04-26T07:07:13.366Z,2427.00
2023-04-26T07:08:12.254Z,9038.00
2023-04-26T07:09:12.348Z,3986.00
2023-04-26T07:10:12.252Z,3495.00
2023-04-26T07:11:12.219Z,5836.00
2023-04-26T07:12:12.253Z,3784.00
2023-04-26T07:13:12.212Z,8761.00
2023-04-26T07:14:12.210Z,10236.00
2023-04-26T07:15:12.243Z,4254.00
2023-04-26T07:16:12.220Z,5934.00
2023-04-26T07:17:12.172Z,4561.00
2023-04-26T07:18:12.262Z,9777.00
2023-04-26T07:19:12.134Z,9441.00
2023-04-26T07:20:12.179Z,5733.00
2023-04-26T07:21:12.159Z,7105.00
2023-04-26T07:22:12.137Z,3215.00
2023-04-26T07:23:12.158Z,6533.00
2023-04-26T07:24:12.089Z,14660.00
2023-04-26T07:25:12.100Z,13204.00
2023-04-26T07:26:12.106Z,6193.00
2023-04-26T07:27:12.372Z,7617.00
2023-04-26T07:28:12.057Z,9520.00
2023-04-26T07:29:12.062Z,2540.00
2023-04-26T07:30:12.031Z,7977.00
2023-04-26T07:31:12.025Z,11217.00
2023-04-26T07:32:12.023Z,12001.00
2023-04-26T07:33:12.158Z,7115.00
2023-04-26T07:34:11.987Z,18936.00
2023-04-26T07:35:12.035Z,16135.00
2023-04-26T07:36:12.097Z,8590.00
2023-04-26T07:37:11.991Z,7123.00
2023-04-26T07:38:11.949Z,8329.00
2023-04-26T07:39:11.930Z,3579.00
2023-04-26T07:40:11.943Z,26919.00
2023-04-26T07:41:11.975Z,13734.00
2023-04-26T07:42:11.892Z,9117.00
2023-04-26T07:43:11.953Z,31090.00
2023-04-26T07:44:11.959Z,25238.00
2023-04-26T07:45:11.913Z,15973.00
2023-04-26T07:46:11.929Z,18384.00
2023-04-26T07:47:11.862Z,19094.00
2023-04-26T07:48:11.900Z,8468.00
2023-04-26T07:49:11.798Z,14866.00
2023-04-26T07:50:11.842Z,6628.00
2023-04-26T07:51:11.828Z,3639.00
2023-04-26T07:52:11.857Z,3653.00
2023-04-26T07:53:11.786Z,3711.00
2023-04-26T07:54:11.756Z,2978.00
2023-04-26T07:55:11.763Z,5988.00
2023-04-26T07:56:11.778Z,6000.00
2023-04-26T07:57:11.738Z,3771.00
2023-04-26T07:58:11.807Z,3087.00
2023-04-26T07:59:11.730Z,3017.00
2023-04-26T08:00:11.750Z,2749.00
2023-04-26T08:01:11.786Z,2355.00
2023-04-26T08:02:11.738Z,2486.00
2023-04-26T08:03:11.879Z,2732.00
2023-04-26T08:04:11.845Z,3043.00
2023-04-26T08:05:11.940Z,3567.00
2023-04-26T08:06:11.834Z,1617.00
2023-04-26T08:07:11.680Z,8183.00
2023-04-26T08:08:11.621Z,10415.00
2023-04-26T08:09:11.648Z,5314.00
2023-04-26T08:10:11.677Z,23829.00
2023-04-26T08:11:11.671Z,15817.00
2023-04-26T08:12:11.666Z,22665.00
2023-04-26T08:13:11.581Z,9441.00
2023-04-26T08:14:11.614Z,15291.00
2023-04-26T08:15:11.564Z,10248.00
2023-04-26T08:16:11.565Z,5102.00
2023-04-26T08:17:11.602Z,5292.00
2023-04-26T08:18:11.646Z,5795.00
2023-04-26T08:19:11.513Z,5119.00
2023-04-26T08:20:11.519Z,5126.00
2023-04-26T08:21:11.475Z,4636.00
2023-04-26T08:22:11.491Z,6044.00
2023-04-26T08:23:11.645Z,8274.00
2023-04-26T08:24:11.476Z,5948.00
2023-04-26T08:25:11.480Z,6458.00
2023-04-26T08:26:11.438Z,7063.00
2023-04-26T08:27:11.403Z,7411.00
2023-04-26T08:28:11.456Z,8983.00
2023-04-26T08:29:11.427Z,4766.00
2023-04-26T08:30:11.437Z,5065.00
2023-04-26T08:31:11.396Z,9204.00
2023-04-26T08:32:11.426Z,5296.00
2023-04-26T08:33:11.346Z,4964.00
2023-04-26T08:34:11.429Z,4638.00
2023-04-26T08:35:11.316Z,4470.00
2023-04-26T08:36:11.349Z,4367.00
2023-04-26T08:37:11.309Z,4093.00
2023-04-26T08:38:11.314Z,3451.00
2023-04-26T08:39:11.340Z,3829.00
2023-04-26T08:40:11.339Z,6302.00
2023-04-26T08:41:11.247Z,3842.00
2023-04-26T08:42:11.289Z,3921.00
2023-04-26T08:43:11.260Z,3663.00
2023-04-26T08:44:11.329Z,4353.00
2023-04-26T08:45:11.229Z,4765.00
2023-04-26T08:46:11.241Z,5798.00
2023-04-26T08:47:11.201Z,5814.00
2023-04-26T08:48:11.255Z,5204.00
2023-04-26T08:49:11.212Z,5771.00
2023-04-26T08:50:11.246Z,6304.00
2023-04-26T08:51:11.166Z,6114.00
2023-04-26T08:52:11.178Z,5885.00
2023-04-26T08:53:11.141Z,5253.00
2023-04-26T08:54:11.136Z,5333.00
2023-04-26T08:55:11.183Z,7188.00
2023-04-26T08:56:11.115Z,5079.00
2023-04-26T08:57:11.138Z,4915.00
2023-04-26T08:58:11.114Z,3424.00
2023-04-26T08:59:11.802Z,4543.00
2023-04-26T09:00:11.074Z,5161.00
2023-04-26T09:01:11.066Z,4208.00
2023-04-26T09:02:11.168Z,4731.00
2023-04-26T09:03:11.159Z,4729.00
2023-04-26T09:04:11.251Z,4678.00
2023-04-26T09:05:11.214Z,5369.00
2023-04-26T09:06:11.069Z,3579.00
2023-04-26T09:07:10.980Z,5452.00
2023-04-26T09:08:11.039Z,4384.00
2023-04-26T09:09:10.975Z,4371.00
2023-04-26T09:10:11.026Z,4463.00
2023-04-26T09:11:10.986Z,4556.00
2023-04-26T09:12:10.967Z,3969.00
2023-04-26T09:13:10.934Z,3570.00
2023-04-26T09:14:10.941Z,3482.00
2023-04-26T09:15:10.909Z,3618.00
2023-04-26T09:16:10.994Z,3716.00
2023-04-26T09:17:10.911Z,3844.00
2023-04-26T09:18:10.902Z,4153.00
2023-04-26T09:19:10.857Z,4396.00
2023-04-26T09:20:10.837Z,4164.00
2023-04-26T09:21:10.846Z,3413.00
2023-04-26T09:22:10.973Z,3182.00
2023-04-26T09:23:10.851Z,3580.00
2023-04-26T09:24:10.871Z,4085.00
2023-04-26T09:25:10.792Z,4493.00
2023-04-26T09:26:10.836Z,4804.00
2023-04-26T09:27:10.800Z,4642.00
2023-04-26T09:28:10.793Z,4522.00
2023-04-26T09:29:10.761Z,4404.00
2023-04-26T09:30:10.754Z,4215.00
2023-04-26T09:31:10.813Z,4291.00
2023-04-26T09:32:10.775Z,4430.00
2023-04-26T09:33:10.748Z,4367.00
2023-04-26T09:34:10.752Z,4168.00
2023-04-26T09:35:10.679Z,4380.00
2023-04-26T09:36:10.694Z,4204.00
2023-04-26T09:37:10.706Z,4255.00
2023-04-26T09:38:13.234Z,4750.00
2023-04-26T09:39:10.694Z,5050.00
2023-04-26T09:40:10.630Z,5284.00
2023-04-26T09:41:10.615Z,5280.00
2023-04-26T09:42:10.671Z,6027.00
2023-04-26T09:43:10.685Z,4991.00
2023-04-26T09:44:10.621Z,5529.00
2023-04-26T09:45:10.615Z,5815.00
2023-04-26T09:46:10.599Z,4839.00
2023-04-26T09:47:10.593Z,4893.00
2023-04-26T09:48:11.582Z,5304.00
2023-04-26T09:49:10.526Z,4758.00
2023-04-26T09:50:10.525Z,4786.00
2023-04-26T09:51:10.502Z,5702.00
2023-04-26T09:52:10.521Z,4844.00
2023-04-26T09:53:10.530Z,4214.00
2023-04-26T09:54:10.516Z,3847.00
2023-04-26T09:55:14.368Z,4473.00
2023-04-26T09:56:10.468Z,4460.00
2023-04-26T09:57:10.447Z,3398.00
2023-04-26T09:58:10.494Z,3290.00
2023-04-26T09:59:10.468Z,3564.00
2023-04-26T10:00:10.434Z,2632.00
2023-04-26T10:01:10.696Z,3526.00
2023-04-26T10:02:10.381Z,2534.00
2023-04-26T10:03:10.500Z,2517.00
2023-04-26T10:04:10.452Z,2041.00
2023-04-26T10:05:10.431Z,2441.00
2023-04-26T10:06:10.468Z,2252.00
2023-04-26T10:07:10.336Z,2165.00
2023-04-26T10:08:10.356Z,2021.00
2023-04-26T10:09:12.921Z,1816.00
2023-04-26T10:10:10.296Z,1647.00
2023-04-26T10:11:10.285Z,1639.00
2023-04-26T10:12:10.277Z,1592.00
2023-04-26T10:13:10.996Z,1528.00
2023-04-26T10:14:10.370Z,1478.00
2023-04-26T10:15:10.234Z,1460.00
2023-04-26T10:16:10.609Z,1397.00
2023-04-26T10:17:10.235Z,1329.00
2023-04-26T10:18:10.257Z,1262.00
2023-04-26T10:19:10.834Z,1244.00
2023-04-26T10:20:14.526Z,1198.00
2023-04-26T10:21:11.045Z,1149.00
2023-04-26T10:22:10.833Z,1103.00
2023-04-26T10:23:10.176Z,1078.00
2023-04-26T10:24:10.190Z,1034.00
2023-04-26T10:25:10.133Z,1031.00
2023-04-26T10:26:11.160Z,1028.00
2023-04-26T10:27:11.001Z,1095.00
2023-04-26T10:28:10.153Z,1176.00
2023-04-26T10:29:10.196Z,1276.00
2023-04-26T10:30:10.837Z,1353.00
2023-04-26T10:31:11.581Z,1424.00
2023-04-26T10:32:10.206Z,1474.00
2023-04-26T10:33:11.091Z,1532.00
2023-04-26T10:34:11.948Z,1586.00
2023-04-26T10:35:10.128Z,1683.00
2023-04-26T10:36:10.037Z,1831.00
2023-04-26T10:37:10.146Z,1995.00
2023-04-26T10:38:10.001Z,2173.00
2023-04-26T10:39:10.204Z,2340.00
2023-04-26T10:40:09.985Z,2469.00
2023-04-26T10:41:10.102Z,2485.00
2023-04-26T10:42:09.980Z,2388.00
2023-04-26T10:43:10.025Z,2319.00
2023-04-26T10:44:09.930Z,2331.00
2023-04-26T10:45:09.976Z,2346.00
2023-04-26T10:46:09.983Z,2247.00
2023-04-26T10:47:09.994Z,2059.00
2023-04-26T10:48:09.984Z,1897.00
2023-04-26T10:49:09.932Z,1755.00
2023-04-26T10:50:09.963Z,1726.00
2023-04-26T10:51:09.893Z,1762.00
2023-04-26T10:52:09.929Z,1845.00
2023-04-26T10:53:09.895Z,1960.00
2023-04-26T10:54:09.868Z,2113.00
2023-04-26T10:55:09.869Z,2377.00
2023-04-26T10:56:09.826Z,2650.00
2023-04-26T10:57:09.832Z,2937.00
2023-04-26T10:58:09.877Z,3188.00
2023-04-26T10:59:30.716Z,3423.00
2023-04-26T11:00:09.790Z,3580.00
2023-04-26T11:01:09.834Z,3525.00
2023-04-26T11:02:09.767Z,3694.00
2023-04-26T11:03:10.032Z,3532.00
2023-04-26T11:04:09.824Z,3523.00
2023-04-26T11:05:09.825Z,2241.00
2023-04-26T11:06:09.755Z,3182.00
2023-04-26T11:07:09.741Z,5881.00
2023-04-26T11:08:09.743Z,5981.00
2023-04-26T11:09:09.738Z,5955.00
2023-04-26T11:10:09.732Z,5384.00
2023-04-26T11:11:09.683Z,5247.00
2023-04-26T11:12:09.666Z,4840.00
2023-04-26T11:13:09.696Z,4298.00
2023-04-26T11:14:09.670Z,3726.00
2023-04-26T11:15:09.675Z,3223.00
2023-04-26T11:16:09.746Z,2952.00
2023-04-26T11:17:09.691Z,2714.00
2023-04-26T11:18:09.614Z,2531.00
2023-04-26T11:19:09.625Z,2506.00
2023-04-26T11:20:09.636Z,2519.00
2023-04-26T11:21:09.615Z,2494.00
2023-04-26T11:22:09.584Z,2449.00
2023-04-26T11:23:09.598Z,2231.00
2023-04-26T11:24:09.547Z,2112.00
2023-04-26T11:25:09.607Z,2162.00
2023-04-26T11:26:09.580Z,2358.00
2023-04-26T11:27:09.531Z,2545.00
2023-04-26T11:28:09.539Z,2729.00
2023-04-26T11:29:09.552Z,2904.00
2023-04-26T11:30:09.513Z,2985.00
2023-04-26T11:31:09.615Z,3212.00
2023-04-26T11:32:09.470Z,3382.00
2023-04-26T11:33:09.490Z,3435.00
2023-04-26T11:34:09.465Z,3465.00
2023-04-26T11:35:09.497Z,3534.00
2023-04-26T11:36:09.429Z,3447.00
2023-04-26T11:37:09.403Z,3280.00
2023-04-26T11:38:09.437Z,3160.00
2023-04-26T11:39:09.380Z,3075.00
2023-04-26T11:40:09.434Z,3021.00
2023-04-26T11:41:09.373Z,2902.00
2023-04-26T11:42:09.377Z,2906.00
2023-04-26T11:43:09.339Z,2873.00
2023-04-26T11:44:09.528Z,2878.00
2023-04-26T11:45:09.392Z,2933.00
2023-04-26T11:46:09.546Z,3019.00
2023-04-26T11:47:09.450Z,3082.00
2023-04-26T11:48:09.337Z,3059.00
2023-04-26T11:49:09.314Z,2949.00
2023-04-26T11:50:09.277Z,2961.00
2023-04-26T11:51:09.346Z,3034.00
2023-04-26T11:52:09.236Z,3085.00
2023-04-26T11:53:09.262Z,3084.00
2023-04-26T11:54:09.212Z,3284.00
2023-04-26T11:55:09.258Z,3412.00
2023-04-26T11:56:09.196Z,3433.00
2023-04-26T11:57:09.175Z,3751.00
2023-04-26T11:58:09.191Z,3840.00
2023-04-26T11:59:09.240Z,3827.00
2023-04-26T12:00:09.199Z,3831.00
2023-04-26T12:01:09.222Z,3758.00
2023-04-26T12:02:09.147Z,3841.00
2023-04-26T12:03:09.384Z,4088.00
2023-04-26T12:04:09.231Z,4233.00
2023-04-26T12:05:09.200Z,4350.00
2023-04-26T12:06:09.104Z,4148.00
2023-04-26T12:07:09.142Z,3911.00
2023-04-26T12:08:09.062Z,3697.00
2023-04-26T12:09:09.089Z,3682.00
2023-04-26T12:10:09.031Z,3685.00
2023-04-26T12:11:09.041Z,3696.00
2023-04-26T12:12:09.021Z,3661.00
2023-04-26T12:13:08.991Z,3580.00
2023-04-26T12:14:09.060Z,3607.00
2023-04-26T12:15:08.994Z,3641.00
2023-04-26T12:16:22.252Z,3735.00
2023-04-26T12:17:09.041Z,3771.00
2023-04-26T12:18:09.114Z,3715.00
2023-04-26T12:19:09.034Z,3665.00
2023-04-26T12:20:08.964Z,3657.00
2023-04-26T12:21:08.920Z,3619.00
2023-04-26T12:22:08.958Z,3595.00
2023-04-26T12:23:09.204Z,3533.00
2023-04-26T12:24:09.820Z,3613.00
2023-04-26T12:25:08.935Z,3703.00
2023-04-26T12:26:08.863Z,3759.00
2023-04-26T12:27:08.873Z,3872.00
2023-04-26T12:28:08.873Z,3894.00
2023-04-26T12:29:09.507Z,3841.00